Time;durP1;ratioP1;P1;durP2;ratioP2;P2;SDS_P1;SDS_P2;PMS_P1;PMS_P2;Temp;Humidity;BMP_temperature;BMP_pressure;BME280_temperature;BME280_humidity;BME280_pressure;Samples;Min_cycle;Max_cycle;Signal;HPM_P1;HPM_P2
2023/10/05 00:01:24;;;;;;;7.77;2.63;;;;;;;;;;5076222;27;89010;-53
2023/10/05 00:03:52;;;;;;;2.60;2.30;;;;;;;;;;5073599;27;88104;-54
2023/10/05 00:06:24;;;;;;;4.43;1.67;;;;;;;;;;5077423;27;87721;-54
2023/10/05 00:08:53;;;;;;;5.53;2.83;;;;;;;;;;5078686;27;87575;-53
2023/10/05 00:11:28;;;;;;;4.50;3.23;;;;;;;;;;5072871;27;88415;-54
2023/10/05 00:13:58;;;;;;;5.50;2.67;;;;;;;;;;5074699;27;87487;-55
2023/10/05 00:16:36;;;;;;;4.77;2.53;;;;;;;;;;5077032;27;90105;-54
2023/10/05 00:19:08;;;;;;;4.10;2.50;;;;;;;;;;5071953;27;87629;-53
2023/10/05 00:21:37;;;;;;;4.40;2.53;;;;;;;;;;5079448;27;88501;-53
2023/10/05 00:24:06;;;;;;;5.67;2.77;;;;;;;;;;5076611;27;89958;-53
2023/10/05 00:26:35;;;;;;;5.00;2.40;;;;;;;;;;5080356;27;88506;-53
2023/10/05 00:29:15;;;;;;;4.00;2.53;;;;;;;;;;5074976;27;87683;-53
2023/10/05 00:31:44;;;;;;;7.23;2.57;;;;;;;;;;5075887;27;88827;-53
2023/10/05 00:34:21;;;;;;;4.77;2.50;;;;;;;;;;5073733;27;90596;-53
2023/10/05 00:36:51;;;;;;;3.23;2.30;;;;;;;;;;5071017;27;88799;-53
2023/10/05 00:39:20;;;;;;;5.63;2.10;;;;;;;;;;5075951;27;87758;-54
2023/10/05 00:41:55;;;;;;;5.13;2.33;;;;;;;;;;5071072;27;89569;-54
2023/10/05 00:44:26;;;;;;;4.87;2.10;;;;;;;;;;5076457;27;88478;-54
2023/10/05 00:46:55;;;;;;;4.43;2.30;;;;;;;;;;5072632;27;87685;-54
2023/10/05 00:49:28;;;;;;;5.63;2.97;;;;;;;;;;5073538;27;87884;-54
2023/10/05 00:52:07;;;;;;;3.83;2.20;;;;;;;;;;5071040;27;88489;-54
2023/10/05 00:54:36;;;;;;;3.70;2.37;;;;;;;;;;5072966;27;87916;-54
2023/10/05 00:57:09;;;;;;;4.27;2.30;;;;;;;;;;5076145;27;87865;-54
2023/10/05 00:59:39;;;;;;;3.83;2.80;;;;;;;;;;5071273;27;87612;-54
2023/10/05 01:02:14;;;;;;;5.00;2.60;;;;;;;;;;5073851;27;89652;-54
2023/10/05 01:04:56;;;;;;;5.27;3.10;;;;;;;;;;5076208;27;89111;-54
2023/10/05 01:10:29;;;;;;;2.57;1.97;;;;;;;;;;5071777;27;87579;-54
2023/10/05 01:13:00;;;;;;;4.93;2.50;;;;;;;;;;5075931;27;89667;-54
2023/10/05 01:15:33;;;;;;;3.60;2.63;;;;;;;;;;5074170;27;89398;-54
2023/10/05 01:18:04;;;;;;;5.33;2.83;;;;;;;;;;5074674;27;89515;-54
2023/10/05 01:20:36;;;;;;;2.50;2.13;;;;;;;;;;5072629;27;87657;-54
2023/10/05 01:23:06;;;;;;;5.63;2.93;;;;;;;;;;5071513;27;88546;-54
2023/10/05 01:25:36;;;;;;;3.00;2.47;;;;;;;;;;5072822;27;88019;-55
2023/10/05 01:28:07;;;;;;;3.33;2.27;;;;;;;;;;5070835;27;87950;-54
2023/10/05 01:30:38;;;;;;;5.17;2.60;;;;;;;;;;5073105;27;87668;-54
2023/10/05 01:33:08;;;;;;;4.43;2.97;;;;;;;;;;5071949;27;90558;-54
2023/10/05 01:35:41;;;;;;;4.53;2.83;;;;;;;;;;5073568;27;88002;-54
2023/10/05 01:38:11;;;;;;;4.13;2.63;;;;;;;;;;5072991;27;87774;-54
2023/10/05 01:40:39;;;;;;;5.20;2.17;;;;;;;;;;5073559;27;88038;-54
2023/10/05 01:43:09;;;;;;;3.33;2.20;;;;;;;;;;5072558;27;88340;-54
2023/10/05 01:45:38;;;;;;;5.67;2.90;;;;;;;;;;5072254;27;88873;-54
2023/10/05 01:48:14;;;;;;;3.80;2.47;;;;;;;;;;5072201;27;87754;-54
2023/10/05 01:50:44;;;;;;;5.30;2.10;;;;;;;;;;5074131;27;87565;-54
2023/10/05 01:53:16;;;;;;;4.57;2.43;;;;;;;;;;5072513;27;88394;-54
2023/10/05 01:55:45;;;;;;;3.87;2.40;;;;;;;;;;5072580;27;88851;-54
2023/10/05 01:58:26;;;;;;;3.30;2.57;;;;;;;;;;5073006;27;87951;-54
2023/10/05 02:00:56;;;;;;;3.70;2.80;;;;;;;;;;5070150;27;88191;-54
2023/10/05 02:03:25;;;;;;;3.33;1.93;;;;;;;;;;5072865;27;89675;-54
2023/10/05 02:05:58;;;;;;;4.60;2.57;;;;;;;;;;5072495;27;89087;-54
2023/10/05 02:08:33;;;;;;;3.03;2.20;;;;;;;;;;5072505;27;88797;-54
2023/10/05 02:11:04;;;;;;;3.80;2.20;;;;;;;;;;5070256;27;87570;-54
2023/10/05 02:13:32;;;;;;;3.27;2.70;;;;;;;;;;5073105;27;88531;-54
2023/10/05 02:16:01;;;;;;;2.67;2.13;;;;;;;;;;5072147;27;87530;-54
2023/10/05 02:18:31;;;;;;;5.33;2.23;;;;;;;;;;5071490;27;88839;-54
2023/10/05 02:21:06;;;;;;;6.57;2.63;;;;;;;;;;5071191;27;87689;-54
2023/10/05 02:23:40;;;;;;;3.63;2.40;;;;;;;;;;5070696;27;89452;-54
2023/10/05 02:26:10;;;;;;;3.57;2.73;;;;;;;;;;5072697;27;88143;-54
2023/10/05 02:28:41;;;;;;;3.33;2.33;;;;;;;;;;5072019;27;89202;-54
2023/10/05 02:31:12;;;;;;;4.23;2.93;;;;;;;;;;5073851;27;87921;-53
2023/10/05 02:33:43;;;;;;;3.50;2.37;;;;;;;;;;5071671;27;89592;-54
2023/10/05 02:36:17;;;;;;;9.03;2.93;;;;;;;;;;5072431;27;87296;-54
2023/10/05 02:38:53;;;;;;;5.67;2.33;;;;;;;;;;5069423;27;87739;-54
2023/10/05 02:41:30;;;;;;;2.97;2.10;;;;;;;;;;5070296;27;87570;-54
2023/10/05 02:43:58;;;;;;;3.63;2.20;;;;;;;;;;5070375;27;87738;-54
2023/10/05 02:46:26;;;;;;;8.13;3.00;;;;;;;;;;5072971;27;89191;-54
2023/10/05 02:48:55;;;;;;;3.97;2.77;;;;;;;;;;5069987;27;87801;-55
2023/10/05 02:51:25;;;;;;;4.50;2.90;;;;;;;;;;5068102;27;87551;-54
2023/10/05 02:54:04;;;;;;;5.83;3.30;;;;;;;;;;5069855;27;88543;-54
2023/10/05 02:56:33;;;;;;;5.30;2.97;;;;;;;;;;5069577;27;90053;-55
2023/10/05 02:59:07;;;;;;;5.57;3.00;;;;;;;;;;5070532;27;89820;-54
2023/10/05 03:01:37;;;;;;;5.10;2.73;;;;;;;;;;5072934;27;87669;-54
2023/10/05 03:04:16;;;;;;;5.70;3.00;;;;;;;;;;5070639;27;89709;-54
2023/10/05 03:06:47;;;;;;;4.37;2.90;;;;;;;;;;5069502;27;88026;-55
2023/10/05 03:09:18;;;;;;;6.07;3.43;;;;;;;;;;5073565;27;87667;-54
2023/10/05 03:11:47;;;;;;;5.63;2.97;;;;;;;;;;5077880;27;88178;-54
2023/10/05 03:14:17;;;;;;;6.90;3.70;;;;;;;;;;5072776;27;88199;-54
2023/10/05 03:16:47;;;;;;;5.37;3.10;;;;;;;;;;5080157;27;88303;-55
2023/10/05 03:19:20;;;;;;;5.73;3.60;;;;;;;;;;5081138;27;87740;-54
2023/10/05 03:21:50;;;;;;;3.87;3.03;;;;;;;;;;5079397;27;88018;-54
2023/10/05 03:24:24;;;;;;;7.40;4.00;;;;;;;;;;5080266;27;88542;-54
2023/10/05 03:26:54;;;;;;;5.97;3.07;;;;;;;;;;5080666;27;88068;-54
2023/10/05 03:29:22;;;;;;;6.03;3.50;;;;;;;;;;5080995;27;87743;-54
2023/10/05 03:31:53;;;;;;;4.33;3.27;;;;;;;;;;5081662;27;87650;-54
2023/10/05 03:34:25;;;;;;;10.70;4.07;;;;;;;;;;5068281;27;87466;-54
2023/10/05 03:36:55;;;;;;;7.33;4.10;;;;;;;;;;5072091;27;88036;-54
2023/10/05 03:39:28;;;;;;;8.03;3.60;;;;;;;;;;5071392;27;88886;-54
2023/10/05 03:41:56;;;;;;;8.40;3.60;;;;;;;;;;5072639;27;88409;-53
2023/10/05 03:44:25;;;;;;;4.60;3.53;;;;;;;;;;5073461;27;89540;-53
2023/10/05 03:46:53;;;;;;;7.53;3.50;;;;;;;;;;5070694;27;88941;-53
2023/10/05 03:49:22;;;;;;;5.30;3.53;;;;;;;;;;5068938;27;88674;-53
2023/10/05 03:51:51;;;;;;;6.77;4.30;;;;;;;;;;5070451;27;87763;-54
2023/10/05 03:54:21;;;;;;;5.90;4.23;;;;;;;;;;5072628;27;88457;-53
2023/10/05 03:57:04;;;;;;;9.67;4.43;;;;;;;;;;5069163;27;89045;-60
2023/10/05 03:59:32;;;;;;;5.80;3.63;;;;;;;;;;5067263;27;88860;-60
2023/10/05 04:02:01;;;;;;;9.37;4.63;;;;;;;;;;5069729;27;87432;-60
2023/10/05 04:04:30;;;;;;;7.67;4.37;;;;;;;;;;5077908;27;87437;-60
2023/10/05 04:06:58;;;;;;;8.97;4.47;;;;;;;;;;5080876;27;89091;-60
2023/10/05 04:09:28;;;;;;;8.47;4.37;;;;;;;;;;5080940;27;88594;-60
2023/10/05 04:12:00;;;;;;;6.83;4.03;;;;;;;;;;5080463;27;88230;-60
2023/10/05 04:14:28;;;;;;;10.43;4.20;;;;;;;;;;5080362;27;89582;-59
2023/10/05 04:16:59;;;;;;;6.93;4.13;;;;;;;;;;5080860;27;89351;-60
2023/10/05 04:19:27;;;;;;;6.73;4.60;;;;;;;;;;5080261;27;88732;-60
2023/10/05 04:21:57;;;;;;;7.17;3.97;;;;;;;;;;5080778;27;87723;-60
2023/10/05 04:24:27;;;;;;;9.83;3.83;;;;;;;;;;5080209;27;89751;-60
2023/10/05 04:26:55;;;;;;;10.53;4.70;;;;;;;;;;5080719;27;89306;-58
2023/10/05 04:29:25;;;;;;;9.40;3.93;;;;;;;;;;5080541;27;88975;-58
2023/10/05 04:31:54;;;;;;;6.90;3.90;;;;;;;;;;5080539;27;88313;-58
2023/10/05 04:34:24;;;;;;;13.10;3.60;;;;;;;;;;5083186;27;89358;-58
2023/10/05 04:36:54;;;;;;;6.97;4.40;;;;;;;;;;5083639;27;89380;-60
2023/10/05 04:39:28;;;;;;;7.67;4.50;;;;;;;;;;5084039;27;89664;-59
2023/10/05 04:41:57;;;;;;;3.83;3.03;;;;;;;;;;5083964;27;87528;-60
2023/10/05 04:44:26;;;;;;;2.90;2.60;;;;;;;;;;5083289;27;89699;-59
2023/10/05 04:46:55;;;;;;;10.80;3.37;;;;;;;;;;5083634;27;89087;-59
2023/10/05 04:49:24;;;;;;;3.33;2.33;;;;;;;;;;5083702;27;87726;-60
2023/10/05 04:51:56;;;;;;;6.87;3.20;;;;;;;;;;5084045;27;87673;-59
2023/10/05 04:54:26;;;;;;;5.97;3.43;;;;;;;;;;5083730;27;88344;-59
2023/10/05 04:57:07;;;;;;;5.80;2.90;;;;;;;;;;5083433;27;89160;-59
2023/10/05 04:59:58;;;;;;;7.23;2.77;;;;;;;;;;5083579;27;88007;-59
2023/10/05 05:02:47;;;;;;;4.17;2.83;;;;;;;;;;5083539;27;87856;-60
2023/10/05 05:05:35;;;;;;;4.30;2.60;;;;;;;;;;5083178;27;88543;-59
2023/10/05 05:08:03;;;;;;;5.33;2.53;;;;;;;;;;5083275;27;88035;-59
2023/10/05 05:10:35;;;;;;;3.90;2.63;;;;;;;;;;5083686;27;88928;-59
2023/10/05 05:13:04;;;;;;;5.47;2.20;;;;;;;;;;5083393;27;87533;-59
2023/10/05 05:15:38;;;;;;;2.60;2.17;;;;;;;;;;5083518;27;88565;-59
2023/10/05 05:18:06;;;;;;;3.23;2.20;;;;;;;;;;5082925;27;89200;-59
2023/10/05 05:20:36;;;;;;;3.27;2.10;;;;;;;;;;5083853;27;87510;-59
2023/10/05 05:23:07;;;;;;;3.87;2.20;;;;;;;;;;5083560;27;87360;-59
2023/10/05 05:25:37;;;;;;;3.40;2.13;;;;;;;;;;5082498;27;88548;-59
2023/10/05 05:28:06;;;;;;;3.27;2.30;;;;;;;;;;5080873;27;89960;-62
2023/10/05 05:30:37;;;;;;;3.90;2.20;;;;;;;;;;5062883;27;88304;-59
2023/10/05 05:33:10;;;;;;;2.80;1.90;;;;;;;;;;5068966;27;87665;-59
2023/10/05 05:35:39;;;;;;;3.90;1.77;;;;;;;;;;5083082;27;88475;-60
2023/10/05 05:38:09;;;;;;;2.00;1.67;;;;;;;;;;5081907;27;89125;-60
2023/10/05 05:40:39;;;;;;;3.37;1.77;;;;;;;;;;5082717;27;88758;-59
2023/10/05 05:43:08;;;;;;;5.33;2.03;;;;;;;;;;5082854;27;87608;-60
2023/10/05 05:45:43;;;;;;;4.43;1.40;;;;;;;;;;5082669;27;88540;-61
2023/10/05 05:48:14;;;;;;;3.10;1.83;;;;;;;;;;5082202;27;89066;-61
2023/10/05 05:50:43;;;;;;;4.23;1.93;;;;;;;;;;5083111;27;88869;-61
2023/10/05 05:53:12;;;;;;;3.60;1.93;;;;;;;;;;5082486;27;88060;-61
2023/10/05 05:55:43;;;;;;;3.43;1.57;;;;;;;;;;5082642;27;89550;-61
2023/10/05 05:58:14;;;;;;;4.13;1.60;;;;;;;;;;5081996;27;89131;-61
2023/10/05 06:00:46;;;;;;;4.53;2.17;;;;;;;;;;5082062;27;87769;-61
2023/10/05 06:03:16;;;;;;;2.00;1.50;;;;;;;;;;5082696;27;87569;-59
2023/10/05 06:05:44;;;;;;;1.43;1.33;;;;;;;;;;5082807;27;88323;-62
2023/10/05 06:08:13;;;;;;;2.57;1.90;;;;;;;;;;5082181;27;89140;-62
2023/10/05 06:10:43;;;;;;;5.13;2.20;;;;;;;;;;5082732;27;88829;-57
2023/10/05 06:13:11;;;;;;;3.13;1.80;;;;;;;;;;5082462;27;87518;-59
2023/10/05 06:15:41;;;;;;;3.50;2.20;;;;;;;;;;5082192;27;89720;-60
2023/10/05 06:18:12;;;;;;;8.70;1.80;;;;;;;;;;5080923;27;88918;-57
2023/10/05 06:20:41;;;;;;;3.77;1.50;;;;;;;;;;5080463;27;90120;-58
2023/10/05 06:23:11;;;;;;;1.77;1.30;;;;;;;;;;5081659;27;87652;-58
2023/10/05 06:25:40;;;;;;;2.17;1.70;;;;;;;;;;5062004;27;89735;-58
2023/10/05 06:28:09;;;;;;;1.37;1.20;;;;;;;;;;5068425;27;89246;-58
2023/10/05 06:30:37;;;;;;;1.90;1.70;;;;;;;;;;5079955;27;87902;-58
2023/10/05 06:33:08;;;;;;;3.30;1.50;;;;;;;;;;5081331;27;87743;-58
2023/10/05 06:35:39;;;;;;;2.50;1.30;;;;;;;;;;5073465;27;89723;-57
2023/10/05 06:38:08;;;;;;;1.43;1.30;;;;;;;;;;5081636;27;88057;-57
2023/10/05 06:40:36;;;;;;;1.77;0.90;;;;;;;;;;5080647;27;87718;-57
2023/10/05 06:43:06;;;;;;;4.17;1.33;;;;;;;;;;5081243;27;88042;-57
2023/10/05 06:45:36;;;;;;;3.53;1.43;;;;;;;;;;5081474;27;89992;-56
2023/10/05 06:48:05;;;;;;;1.50;1.17;;;;;;;;;;5081379;27;87962;-57
2023/10/05 06:50:33;;;;;;;1.80;1.03;;;;;;;;;;5081368;27;88649;-57
2023/10/05 06:53:03;;;;;;;2.70;0.83;;;;;;;;;;5081571;27;87604;-57
2023/10/05 06:55:32;;;;;;;2.10;1.30;;;;;;;;;;5081455;27;88548;-57
2023/10/05 06:58:03;;;;;;;5.87;1.53;;;;;;;;;;5081641;27;89159;-57
2023/10/05 07:00:32;;;;;;;1.77;1.10;;;;;;;;;;5081260;27;89067;-57
2023/10/05 07:03:06;;;;;;;1.53;1.13;;;;;;;;;;5082001;27;87657;-57
2023/10/05 07:05:35;;;;;;;3.70;1.17;;;;;;;;;;5081587;27;87470;-57
2023/10/05 07:08:06;;;;;;;3.07;1.23;;;;;;;;;;5081055;27;90130;-57
2023/10/05 07:10:35;;;;;;;1.50;0.80;;;;;;;;;;5081315;27;89699;-57
2023/10/05 07:13:08;;;;;;;4.00;1.10;;;;;;;;;;5081408;27;87720;-57
2023/10/05 07:15:37;;;;;;;3.13;1.27;;;;;;;;;;5081605;27;89522;-57
2023/10/05 07:18:06;;;;;;;1.00;0.90;;;;;;;;;;5081566;27;89123;-57
2023/10/05 07:20:36;;;;;;;5.53;1.10;;;;;;;;;;5081021;27;88953;-57
2023/10/05 07:23:06;;;;;;;3.10;1.23;;;;;;;;;;5081473;27;87657;-56
2023/10/05 07:25:36;;;;;;;1.43;0.90;;;;;;;;;;5081234;27;88534;-57
2023/10/05 07:28:05;;;;;;;5.40;1.33;;;;;;;;;;5081522;27;88227;-57
2023/10/05 07:30:34;;;;;;;3.17;1.60;;;;;;;;;;5081189;27;87658;-57
2023/10/05 07:33:02;;;;;;;2.30;1.00;;;;;;;;;;5080890;27;87659;-57
2023/10/05 07:35:43;;;;;;;1.30;1.03;;;;;;;;;;5080877;27;88523;-56
2023/10/05 07:38:14;;;;;;;3.03;0.70;;;;;;;;;;5080892;27;89076;-57
2023/10/05 07:40:43;;;;;;;1.20;0.97;;;;;;;;;;5081154;27;88916;-57
2023/10/05 07:43:11;;;;;;;1.47;0.83;;;;;;;;;;5072623;27;87647;-56
2023/10/05 07:45:41;;;;;;;2.33;1.00;;;;;;;;;;5079811;27;89724;-58
2023/10/05 07:48:09;;;;;;;1.57;1.10;;;;;;;;;;5079877;27;88054;-58
2023/10/05 07:50:38;;;;;;;2.20;0.90;;;;;;;;;;5081126;27;88675;-58
2023/10/05 07:53:06;;;;;;;1.10;1.00;;;;;;;;;;5080843;27;87640;-58
2023/10/05 07:55:36;;;;;;;2.13;1.10;;;;;;;;;;5080722;27;87570;-58
2023/10/05 07:58:05;;;;;;;2.20;0.97;;;;;;;;;;5079899;27;90049;-58
2023/10/05 08:00:34;;;;;;;3.90;1.00;;;;;;;;;;5080915;27;89710;-58
2023/10/05 08:03:03;;;;;;;3.60;1.00;;;;;;;;;;5081348;27;87659;-58
2023/10/05 08:05:32;;;;;;;3.30;0.90;;;;;;;;;;5080427;27;88690;-57
2023/10/05 08:08:02;;;;;;;2.77;0.70;;;;;;;;;;5082219;27;88090;-57
2023/10/05 08:10:31;;;;;;;1.63;0.60;;;;;;;;;;5083949;27;88639;-58
2023/10/05 08:13:03;;;;;;;0.60;0.60;;;;;;;;;;5084599;27;87687;-58
2023/10/05 08:15:32;;;;;;;5.17;0.83;;;;;;;;;;5084277;27;88542;-56
2023/10/05 08:18:01;;;;;;;2.17;0.43;;;;;;;;;;5084453;27;87422;-56
2023/10/05 08:20:31;;;;;;;2.37;0.67;;;;;;;;;;5083840;27;89226;-57
2023/10/05 08:22:59;;;;;;;3.80;1.00;;;;;;;;;;5063378;27;87956;-58
2023/10/05 08:25:28;;;;;;;13.27;0.90;;;;;;;;;;5065042;27;89627;-56
2023/10/05 08:27:56;;;;;;;3.37;0.60;;;;;;;;;;5083662;27;87549;-56
2023/10/05 08:30:26;;;;;;;3.50;0.90;;;;;;;;;;5083299;27;87308;-57
2023/10/05 08:32:56;;;;;;;1.70;0.73;;;;;;;;;;5084382;27;87609;-57
2023/10/05 08:35:40;;;;;;;1.63;0.73;;;;;;;;;;5083850;27;88639;-57
2023/10/05 08:38:15;;;;;;;2.67;1.00;;;;;;;;;;5079451;27;88405;-58
2023/10/05 08:40:45;;;;;;;0.50;0.40;;;;;;;;;;5064112;27;88750;-56
2023/10/05 08:43:16;;;;;;;2.57;0.60;;;;;;;;;;5063996;27;87622;-57
2023/10/05 08:45:50;;;;;;;6.07;1.03;;;;;;;;;;5063463;27;89581;-58
2023/10/05 08:48:22;;;;;;;4.50;0.83;;;;;;;;;;5069807;27;89032;-55
2023/10/05 08:50:52;;;;;;;3.13;0.80;;;;;;;;;;5083793;27;89986;-54
2023/10/05 08:53:23;;;;;;;1.87;0.70;;;;;;;;;;5084135;27;87628;-56
2023/10/05 08:55:54;;;;;;;2.67;0.70;;;;;;;;;;5083377;27;87612;-56
2023/10/05 08:58:23;;;;;;;1.20;0.77;;;;;;;;;;5083482;27;87877;-58
2023/10/05 09:00:53;;;;;;;2.03;0.80;;;;;;;;;;5083409;27;88714;-56
2023/10/05 09:03:35;;;;;;;1.30;0.67;;;;;;;;;;5084891;27;87257;-56
2023/10/05 09:06:20;;;;;;;2.10;0.80;;;;;;;;;;5083718;27;89600;-57
2023/10/05 09:09:01;;;;;;;0.63;0.63;;;;;;;;;;5083254;27;88026;-57
2023/10/05 09:11:31;;;;;;;1.40;0.73;;;;;;;;;;5083762;27;87542;-55
2023/10/05 09:14:12;;;;;;;3.83;1.13;;;;;;;;;;5083408;27;87808;-55
2023/10/05 09:16:42;;;;;;;1.33;0.87;;;;;;;;;;5082813;27;89629;-54
2023/10/05 09:19:15;;;;;;;4.73;0.90;;;;;;;;;;5071478;27;89194;-55
2023/10/05 09:21:50;;;;;;;1.37;0.80;;;;;;;;;;5077863;27;88931;-55
2023/10/05 09:24:22;;;;;;;1.83;0.93;;;;;;;;;;5069895;27;87540;-55
2023/10/05 09:26:51;;;;;;;1.60;0.90;;;;;;;;;;5081207;27;89743;-55
2023/10/05 09:29:21;;;;;;;2.37;0.77;;;;;;;;;;5076492;27;89372;-54
2023/10/05 09:31:54;;;;;;;1.27;0.40;;;;;;;;;;5075200;27;87929;-55
2023/10/05 09:34:39;;;;;;;1.80;0.73;;;;;;;;;;5083047;27;87545;-55
2023/10/05 09:37:09;;;;;;;4.43;0.60;;;;;;;;;;5062994;27;88507;-55
2023/10/05 09:39:43;;;;;;;2.10;0.70;;;;;;;;;;5064865;27;89909;-55
2023/10/05 09:42:16;;;;;;;0.90;0.60;;;;;;;;;;5082273;27;89690;-55
2023/10/05 09:44:51;;;;;;;0.40;0.40;;;;;;;;;;5082335;27;87628;-55
2023/10/05 09:47:25;;;;;;;0.80;0.60;;;;;;;;;;5082112;27;89675;-55
2023/10/05 09:49:57;;;;;;;1.60;0.60;;;;;;;;;;5082927;27;89002;-55
2023/10/05 09:52:31;;;;;;;4.63;0.60;;;;;;;;;;5081057;27;88764;-55
2023/10/05 09:55:00;;;;;;;0.63;0.40;;;;;;;;;;5082774;27;87494;-56
2023/10/05 09:57:28;;;;;;;1.27;0.60;;;;;;;;;;5082432;27;87919;-55
2023/10/05 10:00:00;;;;;;;1.43;0.60;;;;;;;;;;5082608;27;89134;-55
2023/10/05 10:02:33;;;;;;;2.93;0.90;;;;;;;;;;5080122;27;88909;-56
2023/10/05 10:05:04;;;;;;;1.07;0.50;;;;;;;;;;5080826;27;88061;-55
2023/10/05 10:07:32;;;;;;;0.83;0.40;;;;;;;;;;5081967;27;88204;-55
2023/10/05 10:10:01;;;;;;;1.87;1.00;;;;;;;;;;5082344;27;89129;-55
2023/10/05 10:12:33;;;;;;;1.50;0.60;;;;;;;;;;5082586;27;87578;-56
2023/10/05 10:15:03;;;;;;;1.57;0.77;;;;;;;;;;5082943;27;87371;-56
2023/10/05 10:17:36;;;;;;;7.33;0.70;;;;;;;;;;5080614;27;89613;-55
2023/10/05 10:20:17;;;;;;;1.77;0.50;;;;;;;;;;5079854;27;89381;-55
2023/10/05 10:22:53;;;;;;;1.07;0.50;;;;;;;;;;5081211;27;89239;-55
2023/10/05 10:25:31;;;;;;;4.43;0.97;;;;;;;;;;5081976;27;87574;-56
2023/10/05 10:28:39;;;;;;;2.97;0.60;;;;;;;;;;5081256;27;88504;-56
2023/10/05 10:31:16;;;;;;;3.07;0.83;;;;;;;;;;5047493;27;89056;-56
2023/10/05 10:33:50;;;;;;;0.53;0.30;;;;;;;;;;5081802;27;89723;-56
2023/10/05 10:36:23;;;;;;;2.60;0.40;;;;;;;;;;5081732;27;87538;-56
2023/10/05 10:38:52;;;;;;;2.03;0.60;;;;;;;;;;5081796;27;87436;-56
2023/10/05 10:41:22;;;;;;;0.83;0.30;;;;;;;;;;5081288;27;88088;-56
2023/10/05 10:43:52;;;;;;;1.23;0.87;;;;;;;;;;5081594;27;87878;-56
2023/10/05 10:46:21;;;;;;;1.17;0.80;;;;;;;;;;5082006;27;87625;-56
2023/10/05 10:48:54;;;;;;;0.67;0.53;;;;;;;;;;5080159;27;88516;-56
2023/10/05 10:51:23;;;;;;;0.67;0.47;;;;;;;;;;5077388;27;88105;-56
2023/10/05 10:53:55;;;;;;;3.80;0.47;;;;;;;;;;5079922;27;88767;-55
2023/10/05 10:56:28;;;;;;;1.93;0.40;;;;;;;;;;5079960;27;87776;-56
2023/10/05 10:59:10;;;;;;;1.40;0.53;;;;;;;;;;5079913;27;88497;-56
2023/10/05 11:01:45;;;;;;;2.97;0.70;;;;;;;;;;5079109;27;89417;-55
2023/10/05 11:04:26;;;;;;;2.33;0.60;;;;;;;;;;5077645;27;88934;-56
2023/10/05 11:06:56;;;;;;;1.90;0.50;;;;;;;;;;5079407;27;88127;-56
2023/10/05 11:09:34;;;;;;;1.67;0.57;;;;;;;;;;5066655;27;89805;-56
2023/10/05 11:12:12;;;;;;;2.10;0.80;;;;;;;;;;5071260;27;89004;-55
2023/10/05 11:14:42;;;;;;;3.87;0.80;;;;;;;;;;5078348;27;88799;-56
2023/10/05 11:17:28;;;;;;;0.40;0.40;;;;;;;;;;5067474;27;87627;-55
2023/10/05 11:20:11;;;;;;;1.37;0.50;;;;;;;;;;5075068;27;88660;-56
2023/10/05 11:22:42;;;;;;;3.70;0.83;;;;;;;;;;5072704;27;89198;-56
2023/10/05 11:25:23;;;;;;;1.13;0.70;;;;;;;;;;5063013;27;88744;-55
2023/10/05 11:27:59;;;;;;;1.73;0.70;;;;;;;;;;5076289;27;88167;-55
2023/10/05 11:30:41;;;;;;;1.30;0.57;;;;;;;;;;5078020;27;88474;-57
2023/10/05 11:33:35;;;;;;;0.97;0.70;;;;;;;;;;5066124;27;87673;-56
2023/10/05 11:36:28;;;;;;;13.63;7.80;;;;;;;;;;5079958;27;90097;-55
2023/10/05 11:38:59;;;;;;;99.13;35.47;;;;;;;;;;5071844;27;87615;-55
2023/10/05 11:41:28;;;;;;;196.07;67.03;;;;;;;;;;5068608;27;88294;-55
2023/10/05 11:43:58;;;;;;;75.83;33.50;;;;;;;;;;5073105;27;89199;-54
2023/10/05 11:46:43;;;;;;;64.10;27.63;;;;;;;;;;5068183;27;87923;-54
2023/10/05 11:49:13;;;;;;;44.50;16.43;;;;;;;;;;5079286;27;88612;-54
2023/10/05 11:51:54;;;;;;;28.73;13.83;;;;;;;;;;5080764;27;88497;-56
2023/10/05 11:54:24;;;;;;;26.60;11.37;;;;;;;;;;5083188;27;88086;-54
2023/10/05 11:56:53;;;;;;;17.93;10.70;;;;;;;;;;5080292;27;88557;-54
2023/10/05 11:59:27;;;;;;;22.70;7.97;;;;;;;;;;5068446;27;87674;-56
2023/10/05 12:01:55;;;;;;;21.57;8.97;;;;;;;;;;5077583;27;88463;-55
2023/10/05 12:04:26;;;;;;;19.33;7.53;;;;;;;;;;5083035;27;89125;-55
2023/10/05 12:06:59;;;;;;;18.77;5.33;;;;;;;;;;5083419;27;87586;-55
2023/10/05 12:09:30;;;;;;;9.73;4.17;;;;;;;;;;5083754;27;87474;-55
2023/10/05 12:11:59;;;;;;;12.77;4.67;;;;;;;;;;5073061;27;89715;-55
2023/10/05 12:14:27;;;;;;;6.77;3.33;;;;;;;;;;5078099;27;90053;-55
2023/10/05 12:16:56;;;;;;;6.70;2.90;;;;;;;;;;5076601;27;89725;-55
2023/10/05 12:19:28;;;;;;;5.97;3.43;;;;;;;;;;5077580;27;87712;-58
2023/10/05 12:21:59;;;;;;;5.10;2.70;;;;;;;;;;5071814;27;89282;-59
2023/10/05 12:24:28;;;;;;;7.80;2.70;;;;;;;;;;5083318;27;88104;-60
2023/10/05 12:26:58;;;;;;;10.60;2.50;;;;;;;;;;5073422;27;87855;-60
2023/10/05 12:29:29;;;;;;;9.93;2.60;;;;;;;;;;5076951;27;87554;-59
2023/10/05 12:32:06;;;;;;;6.53;1.80;;;;;;;;;;5082881;27;88535;-57
2023/10/05 12:34:36;;;;;;;1.83;1.50;;;;;;;;;;5083221;27;87979;-56
2023/10/05 12:37:08;;;;;;;5.10;2.07;;;;;;;;;;5069610;27;88753;-56
2023/10/05 12:39:37;;;;;;;7.57;2.20;;;;;;;;;;5075206;27;88003;-56
2023/10/05 12:42:06;;;;;;;4.60;1.40;;;;;;;;;;5069068;27;88491;-56
2023/10/05 12:44:36;;;;;;;2.57;1.00;;;;;;;;;;5082444;27;88099;-56
2023/10/05 12:47:07;;;;;;;3.47;1.50;;;;;;;;;;5067488;27;88011;-56
2023/10/05 12:49:36;;;;;;;2.77;1.10;;;;;;;;;;5082354;27;87621;-56
2023/10/05 12:52:08;;;;;;;3.60;1.40;;;;;;;;;;5082471;27;88610;-56
2023/10/05 12:54:42;;;;;;;4.13;1.00;;;;;;;;;;5082886;27;89458;-56
2023/10/05 12:57:11;;;;;;;3.97;0.83;;;;;;;;;;5066352;27;88520;-56
2023/10/05 12:59:43;;;;;;;1.17;0.83;;;;;;;;;;5082228;27;87544;-56
2023/10/05 13:02:15;;;;;;;2.33;0.80;;;;;;;;;;5081506;27;88651;-56
2023/10/05 13:04:44;;;;;;;4.53;0.97;;;;;;;;;;5074839;27;89159;-56
2023/10/05 13:07:17;;;;;;;3.27;0.93;;;;;;;;;;5076913;27;89644;-56
2023/10/05 13:09:47;;;;;;;0.63;0.63;;;;;;;;;;5083081;27;87605;-56
2023/10/05 13:12:16;;;;;;;1.27;0.70;;;;;;;;;;5083140;27;88712;-56
2023/10/05 13:14:45;;;;;;;0.83;0.70;;;;;;;;;;5062637;27;88080;-56
2023/10/05 13:17:14;;;;;;;1.87;0.80;;;;;;;;;;5062303;27;87743;-56
2023/10/05 13:19:44;;;;;;;3.60;0.70;;;;;;;;;;5074108;27;87309;-56
2023/10/05 13:22:18;;;;;;;2.03;0.63;;;;;;;;;;5081622;27;88582;-56
2023/10/05 13:24:55;;;;;;;2.03;0.70;;;;;;;;;;5073047;27;88071;-56
2023/10/05 13:27:24;;;;;;;0.97;0.73;;;;;;;;;;5071855;27;87703;-56
2023/10/05 13:29:54;;;;;;;0.67;0.40;;;;;;;;;;5067843;27;88478;-57
2023/10/05 13:32:26;;;;;;;4.20;0.90;;;;;;;;;;5078124;27;87571;-56
2023/10/05 13:34:55;;;;;;;0.97;0.80;;;;;;;;;;5074773;27;89284;-56
2023/10/05 13:37:27;;;;;;;0.57;0.57;;;;;;;;;;5073628;27;88851;-56
2023/10/05 13:39:59;;;;;;;5.43;0.80;;;;;;;;;;5075294;27;87939;-56
2023/10/05 13:42:32;;;;;;;2.87;0.73;;;;;;;;;;5072213;27;89617;-56
2023/10/05 13:45:09;;;;;;;2.00;0.90;;;;;;;;;;5072971;27;88170;-56
2023/10/05 13:47:40;;;;;;;1.73;1.00;;;;;;;;;;5070562;27;87868;-55
2023/10/05 13:50:23;;;;;;;3.50;1.00;;;;;;;;;;5073307;27;87946;-56
2023/10/05 13:52:53;;;;;;;3.27;1.23;;;;;;;;;;5073370;27;89636;-55
2023/10/05 13:55:23;;;;;;;1.73;1.17;;;;;;;;;;5075185;27;90146;-56
2023/10/05 13:57:54;;;;;;;2.00;1.60;;;;;;;;;;5069391;27;89744;-54
2023/10/05 14:00:24;;;;;;;1.60;1.13;;;;;;;;;;5075328;27;87447;-54
2023/10/05 14:02:54;;;;;;;1.77;1.40;;;;;;;;;;5070275;27;88614;-53
2023/10/05 14:05:22;;;;;;;8.77;2.13;;;;;;;;;;5072638;27;88137;-55
2023/10/05 14:07:53;;;;;;;2.53;1.40;;;;;;;;;;5072646;27;88909;-55
2023/10/05 14:10:23;;;;;;;1.90;1.23;;;;;;;;;;5072523;27;87772;-55
2023/10/05 14:12:52;;;;;;;1.67;1.10;;;;;;;;;;5068969;27;89740;-55
2023/10/05 14:15:20;;;;;;;1.23;0.73;;;;;;;;;;5071653;27;89054;-54
2023/10/05 14:17:50;;;;;;;1.33;1.10;;;;;;;;;;5075217;27;88863;-57
2023/10/05 14:20:19;;;;;;;1.60;1.10;;;;;;;;;;5070238;27;88113;-55
2023/10/05 14:22:47;;;;;;;2.13;1.37;;;;;;;;;;5074579;27;88638;-55
2023/10/05 14:25:23;;;;;;;1.30;1.10;;;;;;;;;;5076827;27;89334;-55
2023/10/05 14:27:53;;;;;;;3.53;1.47;;;;;;;;;;5070481;27;87763;-55
2023/10/05 14:30:22;;;;;;;4.00;1.33;;;;;;;;;;5072267;27;87855;-55
2023/10/05 14:32:50;;;;;;;2.43;1.13;;;;;;;;;;5071243;27;89367;-55
2023/10/05 14:35:19;;;;;;;2.50;0.93;;;;;;;;;;5071970;27;88966;-55
2023/10/05 14:37:50;;;;;;;3.57;1.33;;;;;;;;;;5079106;27;87325;-55
2023/10/05 14:40:21;;;;;;;1.10;1.00;;;;;;;;;;5067333;27;87392;-56
2023/10/05 14:42:50;;;;;;;1.70;1.37;;;;;;;;;;5066715;27;88655;-55
2023/10/05 14:45:21;;;;;;;2.50;1.27;;;;;;;;;;5073988;27;89013;-56
2023/10/05 14:47:51;;;;;;;2.37;1.40;;;;;;;;;;5075001;27;88699;-55
2023/10/05 14:50:20;;;;;;;3.80;1.70;;;;;;;;;;5078359;27;87718;-55
2023/10/05 14:52:50;;;;;;;2.87;1.90;;;;;;;;;;5079845;27;89638;-54
2023/10/05 14:55:20;;;;;;;5.67;2.00;;;;;;;;;;5079601;27;88444;-55
2023/10/05 14:57:48;;;;;;;5.23;2.33;;;;;;;;;;5076964;27;89205;-54
2023/10/05 15:00:18;;;;;;;4.30;2.80;;;;;;;;;;5076781;27;88902;-55
2023/10/05 15:02:46;;;;;;;3.80;3.10;;;;;;;;;;5079754;27;89867;-54
2023/10/05 15:05:15;;;;;;;5.77;2.80;;;;;;;;;;5073010;27;89318;-55
2023/10/05 15:07:45;;;;;;;4.97;3.13;;;;;;;;;;5072119;27;87470;-55
2023/10/05 15:10:17;;;;;;;4.77;3.23;;;;;;;;;;5076387;27;89302;-54
2023/10/05 15:12:48;;;;;;;2.60;2.27;;;;;;;;;;5075154;27;88672;-55